Time;durP1;ratioP1;P1;durP2;ratioP2;P2;SDS_P1;SDS_P2;PMS_P1;PMS_P2;Temp;Humidity;BMP_temperature;BMP_pressure;BME280_temperature;BME280_humidity;BME280_pressure;Samples;Min_cycle;Max_cycle;Signal;HPM_P1;HPM_P2
2023/12/16 00:02:03;;;;;;;3.78;2.90;;;5.80;99.90;;;5.00;100.00;99446.13;5001409;28;20042;-35
2023/12/16 00:04:29;;;;;;;8.07;2.65;;;5.80;99.90;;;5.04;100.00;99466.22;4999768;28;20029;-35
2023/12/16 00:06:55;;;;;;;4.25;2.83;;;5.80;99.90;;;5.03;100.00;99480.19;4993121;28;20158;-35
2023/12/16 00:09:20;;;;;;;3.88;3.03;;;5.70;99.90;;;4.96;100.00;99481.78;4998096;28;20040;-36
2023/12/16 00:11:46;;;;;;;6.93;3.10;;;5.70;99.90;;;4.92;100.00;99483.47;4999112;28;20445;-36
2023/12/16 00:14:12;;;;;;;5.25;2.83;;;5.70;99.90;;;4.91;100.00;99470.34;5000037;28;20026;-36
2023/12/16 00:16:53;;;;;;;4.18;2.97;;;5.60;99.90;;;4.55;100.00;99425.22;5001754;28;20494;-35
2023/12/16 00:19:26;;;;;;;6.25;3.50;;;5.60;99.90;;;4.83;100.00;99453.63;5001950;28;20576;-36
2023/12/16 00:21:51;;;;;;;5.35;3.30;;;5.70;99.90;;;4.86;100.00;99469.38;5002685;28;20125;-35
2023/12/16 00:24:17;;;;;;;5.60;3.38;;;5.60;99.90;;;4.75;100.00;99443.91;5007900;28;20383;-37
2023/12/16 00:27:13;;;;;;;8.20;3.83;;;5.60;99.90;;;4.92;100.00;99469.53;5003475;28;20044;-37
2023/12/16 00:29:39;;;;;;;5.15;3.47;;;5.70;99.90;;;4.93;100.00;99472.13;5003594;28;20072;-35
2023/12/16 00:32:05;;;;;;;4.45;3.35;;;5.60;99.90;;;4.88;100.00;99450.28;5001521;28;20021;-35
2023/12/16 00:34:33;;;;;;;6.15;3.70;;;5.70;99.90;;;4.96;100.00;99472.22;5004670;28;20030;-35
2023/12/16 00:37:05;;;;;;;6.10;4.00;;;5.70;99.90;;;4.95;100.00;99456.47;5005352;28;20052;-37
2023/12/16 00:39:32;;;;;;;6.03;3.67;;;5.70;99.90;;;5.00;100.00;99469.66;5004335;28;20029;-36
2023/12/16 00:41:59;;;;;;;5.25;3.67;;;5.70;99.90;;;5.00;100.00;99465.28;5002298;28;20081;-35
2023/12/16 00:44:24;;;;;;;6.10;3.88;;;5.70;99.90;;;4.97;100.00;99462.63;5003651;28;20052;-36
2023/12/16 00:46:50;;;;;;;5.40;3.47;;;5.70;99.90;;;4.97;100.00;99467.84;4997031;28;20585;-37
2023/12/16 00:49:16;;;;;;;6.47;3.30;;;5.70;99.90;;;4.94;100.00;99471.31;5004810;28;20034;-36
2023/12/16 00:51:41;;;;;;;5.07;3.50;;;5.70;99.90;;;4.90;100.00;99479.03;4994985;28;20026;-36
2023/12/16 00:54:07;;;;;;;7.47;3.72;;;5.60;99.90;;;4.80;100.00;99464.94;5003265;28;20087;-36
2023/12/16 00:56:33;;;;;;;5.18;3.70;;;5.60;99.90;;;4.83;100.00;99472.84;5002754;28;20456;-36
2023/12/16 00:58:59;;;;;;;5.03;3.20;;;5.50;99.90;;;4.83;100.00;99491.13;5000405;28;20029;-36
2023/12/16 01:01:24;;;;;;;5.93;3.50;;;5.60;99.90;;;4.82;100.00;99485.88;5002321;28;20026;-36
2023/12/16 01:03:50;;;;;;;5.18;3.58;;;5.60;99.90;;;4.84;100.00;99487.66;5000819;28;20022;-36
2023/12/16 01:06:16;;;;;;;5.25;3.38;;;5.50;99.90;;;4.84;100.00;99494.63;4999737;28;20080;-36
2023/12/16 01:08:42;;;;;;;7.35;3.60;;;5.60;99.90;;;4.87;100.00;99502.53;4994698;28;20041;-35
2023/12/16 01:11:11;;;;;;;5.63;3.80;;;5.60;99.90;;;4.87;100.00;99506.03;5006000;28;20068;-36
2023/12/16 01:13:37;;;;;;;8.45;4.00;;;5.60;99.90;;;4.89;100.00;99516.53;4995794;28;20034;-36
2023/12/16 01:16:03;;;;;;;6.00;3.92;;;5.60;99.90;;;4.90;100.00;99507.81;5003571;28;20029;-35
2023/12/16 01:18:29;;;;;;;6.05;3.70;;;5.60;99.90;;;4.94;100.00;99521.00;5001650;28;20116;-35
2023/12/16 01:20:55;;;;;;;6.22;3.88;;;5.70;99.90;;;4.97;100.00;99520.16;5003418;28;20038;-34
2023/12/16 01:23:21;;;;;;;6.00;3.40;;;5.70;99.90;;;4.97;100.00;99512.31;5000999;28;20029;-35
2023/12/16 01:25:47;;;;;;;5.53;3.90;;;5.70;99.90;;;5.01;100.00;99515.84;5000663;28;20224;-36
2023/12/16 01:28:13;;;;;;;5.38;3.78;;;5.70;99.90;;;5.02;100.00;99510.66;5004200;28;20367;-35
2023/12/16 01:30:39;;;;;;;5.78;3.88;;;5.70;99.90;;;5.04;100.00;99516.81;4997786;28;20141;-36
2023/12/16 01:33:05;;;;;;;4.65;3.22;;;5.80;99.90;;;5.05;100.00;99518.56;4998655;28;20126;-35
2023/12/16 01:35:30;;;;;;;5.32;3.78;;;5.80;99.90;;;5.03;100.00;99516.81;5003835;28;20034;-36
2023/12/16 01:37:56;;;;;;;8.10;3.83;;;5.80;99.90;;;5.06;100.00;99520.34;5000672;28;21055;-35
2023/12/16 01:40:22;;;;;;;5.22;3.55;;;5.80;99.90;;;5.06;100.00;99509.91;4996214;28;20045;-35
2023/12/16 01:42:48;;;;;;;5.65;3.60;;;5.80;99.90;;;5.08;100.00;99509.91;4997149;28;20072;-36
2023/12/16 01:45:17;;;;;;;6.20;3.70;;;5.80;99.90;;;4.98;100.00;99488.81;5001302;28;20108;-36
2023/12/16 01:47:43;;;;;;;5.20;3.85;;;5.80;99.90;;;5.07;100.00;99493.31;4998909;28;20036;-37
2023/12/16 01:50:10;;;;;;;5.60;3.83;;;5.80;99.90;;;5.06;100.00;99496.81;5000784;28;20037;-36
2023/12/16 01:52:36;;;;;;;5.53;3.65;;;5.80;99.90;;;4.93;100.00;99479.97;4993646;28;20030;-37
2023/12/16 01:55:02;;;;;;;5.80;3.22;;;5.80;99.90;;;5.07;100.00;99500.31;4999213;28;20036;-37
2023/12/16 01:57:28;;;;;;;5.47;3.67;;;5.80;99.90;;;5.04;100.00;99495.88;5002853;28;20030;-37
2023/12/16 01:59:54;;;;;;;6.35;3.92;;;5.80;99.90;;;4.98;100.00;99498.38;5002827;28;20402;-35
2023/12/16 02:02:21;;;;;;;10.23;4.43;;;5.70;99.90;;;4.77;100.00;99480.53;4997909;28;20506;-36
2023/12/16 02:04:47;;;;;;;6.03;3.78;;;5.70;99.90;;;4.85;100.00;99505.13;4998012;28;20053;-36
2023/12/16 02:07:13;;;;;;;6.15;2.95;;;5.70;99.90;;;4.83;100.00;99504.22;5002142;28;20029;-36
2023/12/16 02:09:39;;;;;;;3.90;2.58;;;5.60;99.90;;;4.81;100.00;99505.91;4999926;28;20037;-36
2023/12/16 02:12:05;;;;;;;4.32;2.47;;;5.60;99.90;;;4.77;100.00;99514.53;5000648;28;20489;-36
2023/12/16 02:14:30;;;;;;;4.85;2.70;;;5.50;99.90;;;4.71;100.00;99506.56;5000536;28;20045;-36
2023/12/16 02:16:56;;;;;;;4.93;3.20;;;5.50;99.90;;;4.62;100.00;99504.66;4998474;28;20045;-36
2023/12/16 02:19:25;;;;;;;5.00;3.72;;;5.40;99.90;;;4.64;100.00;99507.31;5004086;28;20778;-36
2023/12/16 02:21:52;;;;;;;5.78;3.55;;;5.40;99.90;;;4.61;100.00;99510.72;4997614;28;20044;-36
2023/12/16 02:24:18;;;;;;;5.82;3.97;;;5.40;99.90;;;4.57;100.00;99508.91;4995659;28;20886;-37
2023/12/16 02:26:44;;;;;;;6.50;4.00;;;5.30;99.90;;;4.45;100.00;99495.56;5000284;28;20084;-36
2023/12/16 02:29:09;;;;;;;6.05;3.70;;;5.30;99.90;;;4.50;100.00;99509.63;4994349;28;20042;-36
2023/12/16 02:31:35;;;;;;;5.07;3.92;;;5.30;99.90;;;4.55;100.00;99515.84;4995477;28;22380;-36
2023/12/16 02:34:01;;;;;;;6.20;3.50;;;5.30;99.90;;;4.56;100.00;99531.56;4995668;28;20032;-36
2023/12/16 02:36:26;;;;;;;5.47;3.83;;;5.30;99.90;;;4.57;100.00;99535.91;4995407;28;20038;-35
2023/12/16 02:38:52;;;;;;;7.35;3.83;;;5.30;99.90;;;4.56;100.00;99534.16;4983038;28;20025;-36
2023/12/16 02:41:18;;;;;;;6.53;4.00;;;5.30;99.90;;;4.55;100.00;99537.63;4999099;28;20018;-36
2023/12/16 02:43:43;;;;;;;6.70;3.97;;;5.30;99.90;;;4.57;100.00;99524.56;4994849;28;20025;-36
2023/12/16 02:46:09;;;;;;;6.18;3.60;;;5.30;99.90;;;4.56;100.00;99528.94;4996683;28;20025;-36
2023/12/16 02:48:35;;;;;;;5.25;3.80;;;5.30;99.90;;;4.56;100.00;99526.31;5003751;28;20113;-36
2023/12/16 02:51:01;;;;;;;5.22;4.00;;;5.30;99.90;;;4.53;100.00;99520.16;4996781;28;20057;-36
2023/12/16 02:53:27;;;;;;;7.75;3.97;;;5.30;99.90;;;4.55;100.00;99527.16;5001896;28;20530;-36
2023/12/16 02:55:53;;;;;;;5.90;3.67;;;5.30;99.90;;;4.56;100.00;99520.22;5000799;28;20026;-36
2023/12/16 02:58:19;;;;;;;5.47;3.38;;;5.30;99.90;;;4.57;100.00;99528.06;4994566;28;20025;-36
2023/12/16 03:00:44;;;;;;;5.82;3.63;;;5.30;99.90;;;4.57;100.00;99525.44;4998389;28;20029;-36
2023/12/16 03:03:10;;;;;;;5.35;4.00;;;5.30;99.90;;;4.58;100.00;99526.38;4972233;28;20209;-36
2023/12/16 03:05:36;;;;;;;5.57;3.78;;;5.30;99.90;;;4.57;100.00;99525.44;4990436;28;21206;-36
2023/12/16 03:08:02;;;;;;;5.95;3.83;;;5.30;99.90;;;4.59;100.00;99528.09;4995967;28;20148;-36
2023/12/16 03:10:27;;;;;;;5.65;3.17;;;5.40;99.90;;;4.61;100.00;99538.59;5001867;28;20048;-36
2023/12/16 03:12:53;;;;;;;4.63;3.28;;;5.30;99.90;;;4.59;100.00;99541.16;4998347;28;20164;-36
2023/12/16 03:15:19;;;;;;;5.93;3.63;;;5.30;99.90;;;4.56;100.00;99544.63;4994442;28;20117;-36
2023/12/16 03:17:45;;;;;;;4.60;3.47;;;5.30;99.90;;;4.55;100.00;99544.56;4999069;28;20040;-36
2023/12/16 03:20:11;;;;;;;5.45;3.78;;;5.30;99.90;;;4.55;100.00;99542.84;4997245;28;20048;-36
2023/12/16 03:22:37;;;;;;;6.18;3.85;;;5.30;99.90;;;4.54;100.00;99538.47;4996313;28;20049;-36
2023/12/16 03:25:03;;;;;;;6.82;4.20;;;5.30;99.90;;;4.56;100.00;99544.63;4995332;28;20065;-36
2023/12/16 03:27:29;;;;;;;5.00;3.42;;;5.30;99.90;;;4.59;100.00;99539.47;4999993;28;20402;-36
2023/12/16 03:29:55;;;;;;;5.88;3.72;;;5.40;99.90;;;4.49;100.00;99516.59;5000748;28;20034;-36
2023/12/16 03:32:20;;;;;;;5.97;3.88;;;5.30;99.90;;;4.61;100.00;99544.69;4998821;28;20498;-36
2023/12/16 03:34:46;;;;;;;6.13;3.75;;;5.40;99.90;;;4.59;100.00;99533.34;4999230;28;20410;-36
2023/12/16 03:37:12;;;;;;;5.40;3.80;;;5.30;99.90;;;4.58;100.00;99542.91;4999300;28;20042;-36
2023/12/16 03:39:40;;;;;;;5.63;3.88;;;5.30;99.90;;;4.58;100.00;99539.44;4999456;28;20057;-36
2023/12/16 03:42:06;;;;;;;5.80;4.07;;;5.30;99.90;;;4.59;100.00;99539.47;4992124;28;20479;-36
2023/12/16 03:44:33;;;;;;;5.32;3.40;;;5.30;99.90;;;4.57;100.00;99535.03;4999962;28;20038;-36
2023/12/16 03:46:58;;;;;;;5.78;3.70;;;5.30;99.90;;;4.56;100.00;99536.78;4996534;28;20091;-36
2023/12/16 03:49:24;;;;;;;4.38;3.47;;;5.30;99.90;;;4.57;100.00;99541.13;4999489;28;20034;-36
2023/12/16 03:51:50;;;;;;;5.38;3.40;;;5.30;99.90;;;4.56;100.00;99533.28;5001348;28;20485;-36
2023/12/16 03:54:16;;;;;;;5.88;3.70;;;5.40;99.90;;;4.57;100.00;99533.28;4995456;28;20475;-36
2023/12/16 03:56:42;;;;;;;4.13;3.08;;;5.40;99.90;;;4.58;100.00;99537.69;5001768;28;20029;-36
2023/12/16 03:59:11;;;;;;;4.63;2.85;;;5.30;99.90;;;4.60;100.00;99540.34;4997383;28;20397;-36
2023/12/16 04:01:44;;;;;;;4.65;3.20;;;5.40;99.90;;;4.62;100.00;99536.03;4969540;28;20065;-36
2023/12/16 04:04:10;;;;;;;5.07;3.30;;;5.40;99.90;;;4.63;100.00;99534.28;4996807;28;20264;-36
2023/12/16 04:06:35;;;;;;;4.95;3.33;;;5.40;99.90;;;4.57;100.00;99529.81;4998880;28;20022;-36
2023/12/16 04:09:01;;;;;;;5.15;3.00;;;5.40;99.90;;;4.66;100.00;99540.44;4995712;28;20475;-36
2023/12/16 04:11:27;;;;;;;3.92;2.83;;;5.40;99.90;;;4.68;100.00;99541.38;4994096;28;20026;-36
2023/12/16 04:13:52;;;;;;;4.15;3.05;;;5.40;99.90;;;4.66;100.00;99540.44;4996540;28;20084;-36
2023/12/16 04:16:19;;;;;;;4.15;2.97;;;5.40;99.90;;;4.66;100.00;99543.06;4997147;28;20041;-36
2023/12/16 04:18:45;;;;;;;4.95;3.30;;;5.40;99.90;;;4.67;100.00;99550.06;4998150;28;20034;-36
2023/12/16 04:21:11;;;;;;;3.92;2.90;;;5.40;99.90;;;4.66;100.00;99544.81;4994878;28;20036;-36
2023/12/16 04:23:37;;;;;;;4.93;3.10;;;5.40;99.90;;;4.65;100.00;99549.16;4995638;28;20366;-36
2023/12/16 04:26:03;;;;;;;4.70;2.90;;;5.40;99.90;;;4.62;100.00;99553.44;5003510;28;20026;-36
2023/12/16 04:28:28;;;;;;;4.57;2.75;;;5.40;99.90;;;4.59;100.00;99542.09;4996160;28;20033;-36
2023/12/16 04:30:54;;;;;;;3.08;2.53;;;5.40;99.90;;;4.65;100.00;99554.38;5000448;28;20060;-36
2023/12/16 04:33:20;;;;;;;4.78;3.17;;;5.40;99.90;;;4.66;100.00;99544.81;4999936;28;20022;-35
2023/12/16 04:35:45;;;;;;;4.72;2.88;;;5.40;99.90;;;4.67;100.00;99552.69;5000364;28;20544;-35
2023/12/16 04:38:11;;;;;;;3.95;2.50;;;5.40;99.90;;;4.66;100.00;99545.69;5000218;28;20030;-35
2023/12/16 04:40:37;;;;;;;4.78;2.92;;;5.40;99.90;;;4.67;100.00;99547.47;5001067;28;20034;-36
2023/12/16 04:43:02;;;;;;;5.05;2.90;;;5.40;99.90;;;4.64;100.00;99541.28;5002930;28;20099;-36
2023/12/16 04:45:28;;;;;;;3.28;2.33;;;5.40;99.90;;;4.66;100.00;99539.59;4997718;28;20058;-37
2023/12/16 04:47:54;;;;;;;4.43;2.80;;;5.40;99.90;;;4.65;100.00;99546.56;5005182;28;20034;-36
2023/12/16 04:50:19;;;;;;;6.07;2.63;;;5.40;99.90;;;4.62;100.00;99540.38;5001799;28;20062;-36
2023/12/16 04:52:45;;;;;;;3.92;2.60;;;5.40;99.90;;;4.64;100.00;99544.78;5003924;28;20037;-36
2023/12/16 04:55:11;;;;;;;4.40;3.05;;;5.40;99.90;;;4.62;100.00;99549.09;4998905;28;20030;-36
2023/12/16 04:57:37;;;;;;;3.70;2.40;;;5.40;99.90;;;4.60;100.00;99545.56;4997664;28;20108;-36
2023/12/16 05:00:04;;;;;;;4.72;2.80;;;5.40;99.90;;;4.61;100.00;99547.31;4997744;28;20087;-37
2023/12/16 05:02:30;;;;;;;4.30;2.47;;;5.40;99.90;;;4.59;100.00;99547.31;4993151;28;20080;-36
2023/12/16 05:04:56;;;;;;;4.05;2.42;;;5.40;99.90;;;4.58;100.00;99545.53;5003548;28;20510;-36
2023/12/16 05:07:22;;;;;;;4.25;2.63;;;5.30;99.90;;;4.56;100.00;99543.75;4999495;28;20056;-36
2023/12/16 05:09:47;;;;;;;3.95;2.40;;;5.30;99.90;;;4.54;100.00;99541.09;4996653;28;20030;-36
2023/12/16 05:12:13;;;;;;;4.35;2.65;;;5.30;99.90;;;4.53;100.00;99547.16;4998582;28;20030;-36
2023/12/16 05:14:40;;;;;;;3.38;2.40;;;5.30;99.90;;;4.52;100.00;99550.63;5001377;28;20049;-36
2023/12/16 05:17:05;;;;;;;4.35;2.60;;;5.30;99.90;;;4.50;100.00;99554.91;5003586;28;20021;-36
2023/12/16 05:19:31;;;;;;;4.47;2.45;;;5.30;99.90;;;4.46;100.00;99553.09;4995554;28;20041;-37
2023/12/16 05:21:57;;;;;;;3.70;2.42;;;5.30;99.90;;;4.50;100.00;99559.28;5003517;28;20430;-36
2023/12/16 05:24:22;;;;;;;2.88;2.17;;;5.20;99.90;;;4.50;100.00;99559.28;4996740;28;20029;-36
2023/12/16 05:26:48;;;;;;;3.90;2.40;;;5.30;99.90;;;4.49;100.00;99553.19;5001193;28;20268;-37
2023/12/16 05:29:14;;;;;;;2.97;2.00;;;5.20;99.90;;;4.47;100.00;99554.88;4998991;28;20490;-35
2023/12/16 05:31:39;;;;;;;3.90;2.42;;;5.20;99.90;;;4.47;100.00;99561.81;4997848;28;20516;-36
2023/12/16 05:34:06;;;;;;;2.92;2.17;;;5.20;99.90;;;4.44;100.00;99554.81;4998389;28;20053;-35
2023/12/16 05:36:31;;;;;;;3.35;2.50;;;5.20;99.90;;;4.44;100.00;99560.03;5001377;28;20168;-35
2023/12/16 05:38:57;;;;;;;4.35;2.72;;;5.20;99.90;;;4.43;100.00;99557.38;4998827;28;20427;-36
2023/12/16 05:41:23;;;;;;;4.20;2.67;;;5.20;99.90;;;4.38;100.00;99558.16;5001649;28;20029;-36
2023/12/16 05:43:48;;;;;;;5.15;3.13;;;5.20;99.90;;;4.31;100.00;99561.47;4999269;28;20100;-36
2023/12/16 05:46:14;;;;;;;4.70;3.10;;;5.10;99.90;;;4.26;100.00;99549.16;4998152;28;20505;-36
2023/12/16 05:48:40;;;;;;;4.28;3.00;;;5.10;99.90;;;4.18;100.00;99548.97;4996848;28;20460;-35
2023/12/16 05:51:05;;;;;;;7.10;3.10;;;5.00;99.90;;;4.16;100.00;99558.50;5001193;28;20026;-35
2023/12/16 05:53:34;;;;;;;4.55;3.10;;;5.00;99.90;;;4.08;100.00;99555.72;4995425;28;20029;-35
2023/12/16 05:56:03;;;;;;;4.88;3.40;;;4.90;99.90;;;4.04;100.00;99551.28;5001955;28;20124;-36
2023/12/16 05:58:29;;;;;;;5.03;3.25;;;4.80;99.90;;;4.04;100.00;99559.13;4998892;28;20022;-35
2023/12/16 06:00:55;;;;;;;6.05;3.35;;;4.80;99.90;;;4.03;100.00;99556.47;4993431;28;20115;-35
2023/12/16 06:03:21;;;;;;;4.53;3.28;;;4.80;99.90;;;3.90;100.00;99539.63;4995442;28;20560;-35
2023/12/16 06:05:46;;;;;;;4.45;3.10;;;4.80;99.90;;;3.97;100.00;99554.59;5005122;28;20037;-35
2023/12/16 06:08:12;;;;;;;8.15;3.70;;;4.80;99.90;;;3.88;100.00;99557.88;5000723;28;20097;-35
2023/12/16 06:10:38;;;;;;;5.13;3.58;;;4.70;99.90;;;3.90;100.00;99558.78;4996815;28;20053;-35
2023/12/16 06:13:03;;;;;;;5.72;3.80;;;4.70;99.90;;;3.86;100.00;99554.34;5004009;28;20025;-35
2023/12/16 06:15:29;;;;;;;5.38;3.47;;;4.70;99.90;;;3.86;100.00;99562.16;4997712;28;20045;-35
2023/12/16 06:17:55;;;;;;;6.28;3.67;;;4.70;99.90;;;3.81;100.00;99566.38;5003437;28;20025;-35
2023/12/16 06:20:20;;;;;;;6.47;3.35;;;4.70;99.90;;;3.72;100.00;99545.28;5002862;28;20041;-35
2023/12/16 06:22:46;;;;;;;5.82;3.38;;;4.70;99.90;;;3.87;100.00;99576.09;5001656;28;20411;-35
2023/12/16 06:25:12;;;;;;;4.88;3.42;;;4.60;99.90;;;3.89;100.00;99575.28;5002688;28;20041;-35
2023/12/16 06:27:38;;;;;;;5.82;3.38;;;4.60;99.90;;;3.89;100.00;99571.78;5000772;28;20049;-36
2023/12/16 06:30:04;;;;;;;7.78;3.00;;;4.70;99.90;;;3.88;100.00;99573.53;5004572;28;20026;-35
2023/12/16 06:32:30;;;;;;;4.63;2.92;;;4.60;99.90;;;3.90;100.00;99576.19;5000365;28;20458;-35
2023/12/16 06:34:56;;;;;;;4.90;3.33;;;4.70;99.90;;;3.89;100.00;99580.50;5003858;28;20045;-35
2023/12/16 06:37:21;;;;;;;3.70;2.80;;;4.70;99.90;;;3.90;100.00;99584.88;5003021;28;20438;-36
2023/12/16 06:39:47;;;;;;;3.92;2.70;;;4.70;99.90;;;3.89;100.00;99584.84;5000690;28;20486;-36
2023/12/16 06:42:13;;;;;;;4.57;2.90;;;4.70;99.90;;;3.92;100.00;99587.53;4996135;28;20025;-36
2023/12/16 06:44:39;;;;;;;3.25;2.83;;;4.70;99.90;;;3.96;100.00;99590.25;4997384;28;20390;-36
2023/12/16 06:47:04;;;;;;;5.20;3.10;;;4.80;99.90;;;3.97;100.00;99593.75;5001877;28;20071;-36
2023/12/16 06:49:30;;;;;;;4.65;2.95;;;4.80;99.90;;;3.98;100.00;99585.97;4999031;28;20045;-36
2023/12/16 06:51:57;;;;;;;5.10;3.28;;;4.80;99.90;;;4.01;100.00;99591.25;5002126;28;20486;-36
2023/12/16 06:54:22;;;;;;;4.05;2.72;;;4.80;99.90;;;4.04;100.00;99600.91;4998389;28;20547;-36
2023/12/16 06:56:48;;;;;;;4.20;3.00;;;4.80;99.90;;;3.98;100.00;99585.97;5000741;28;20025;-36
2023/12/16 06:59:14;;;;;;;5.72;2.60;;;4.80;99.90;;;4.06;100.00;99590.50;4999383;28;20112;-35
2023/12/16 07:01:39;;;;;;;4.55;3.00;;;4.80;99.90;;;4.02;100.00;99589.53;4997047;28;20022;-36
2023/12/16 07:04:05;;;;;;;3.28;2.42;;;4.80;99.90;;;3.97;100.00;99589.41;5002104;28;20383;-35
2023/12/16 07:06:31;;;;;;;4.72;3.17;;;4.70;99.90;;;3.92;100.00;99580.59;5000867;28;20264;-35
2023/12/16 07:08:56;;;;;;;6.45;2.95;;;4.70;99.90;;;3.87;100.00;99590.03;5003342;28;20021;-35
2023/12/16 07:11:22;;;;;;;5.18;3.28;;;4.70;99.90;;;3.75;100.00;99584.50;4999644;28;20434;-35
2023/12/16 07:13:48;;;;;;;5.53;3.80;;;4.60;99.90;;;3.78;100.00;99593.28;5000496;28;20064;-35
2023/12/16 07:16:16;;;;;;;5.20;3.35;;;4.60;99.90;;;3.81;100.00;99600.31;5000944;28;20069;-35
2023/12/16 07:18:42;;;;;;;4.18;2.97;;;4.60;99.90;;;3.81;100.00;99597.72;5000894;28;20026;-36
2023/12/16 07:21:08;;;;;;;5.13;3.13;;;4.60;99.90;;;3.84;100.00;99605.63;4999893;28;20052;-36
2023/12/16 07:23:33;;;;;;;4.35;3.15;;;4.60;99.90;;;3.86;100.00;99603.03;4999209;28;20037;-34
2023/12/16 07:26:00;;;;;;;4.50;2.85;;;4.60;99.90;;;3.87;100.00;99610.03;5001810;28;20087;-37
2023/12/16 07:28:27;;;;;;;3.97;2.53;;;4.70;99.90;;;3.90;100.00;99604.91;4999545;28;20040;-35
2023/12/16 07:30:52;;;;;;;4.32;3.08;;;4.70;99.90;;;3.96;100.00;99610.25;4998478;28;20419;-35
2023/12/16 07:33:18;;;;;;;5.80;2.88;;;4.70;99.90;;;4.00;100.00;99607.78;4997736;28;20064;-36
2023/12/16 07:35:44;;;;;;;4.15;2.90;;;4.80;99.90;;;4.06;100.00;99608.78;4998610;28;20069;-36
2023/12/16 07:38:10;;;;;;;4.72;2.90;;;4.80;99.90;;;4.11;100.00;99608.03;5002131;28;20053;-37
2023/12/16 07:40:36;;;;;;;3.83;2.88;;;4.80;99.90;;;4.15;100.00;99606.38;5001553;28;20033;-35
2023/12/16 07:43:02;;;;;;;4.40;3.00;;;4.90;99.90;;;4.18;100.00;99609.03;4999351;28;20034;-35
2023/12/16 07:45:28;;;;;;;3.80;2.72;;;4.90;99.90;;;4.20;100.00;99612.59;4996033;28;20444;-36
2023/12/16 07:47:54;;;;;;;4.50;2.70;;;5.00;99.90;;;4.23;100.00;99615.25;5001499;28;20040;-36
2023/12/16 07:50:21;;;;;;;3.95;2.60;;;5.00;99.90;;;4.17;100.00;99594.25;4999875;28;20030;-36
2023/12/16 07:52:47;;;;;;;4.30;2.83;;;5.00;99.90;;;4.29;100.00;99612.81;5002403;28;20030;-36
2023/12/16 07:55:13;;;;;;;3.97;2.78;;;5.10;99.90;;;4.32;100.00;99620.72;5001155;28;20029;-36
2023/12/16 07:57:38;;;;;;;4.68;2.67;;;5.10;99.90;;;4.37;100.00;99623.44;5001131;28;20025;-35
2023/12/16 08:00:05;;;;;;;5.25;2.70;;;5.10;99.90;;;4.44;100.00;99621.88;5004012;28;20076;-35
2023/12/16 08:02:31;;;;;;;4.20;3.15;;;5.20;99.90;;;4.48;100.00;99621.06;4999327;28;20033;-35
2023/12/16 08:04:57;;;;;;;3.85;2.72;;;5.20;99.90;;;4.44;100.00;99616.63;5002087;28;20132;-35
2023/12/16 08:07:23;;;;;;;5.30;2.80;;;5.30;99.90;;;4.54;100.00;99636.88;5000562;28;20042;-36
2023/12/16 08:09:49;;;;;;;3.40;2.60;;;5.30;99.90;;;4.48;100.00;99629.78;4996847;28;20087;-36
2023/12/16 08:12:15;;;;;;;4.40;2.83;;;5.30;99.90;;;4.62;100.00;99643.19;4996052;28;20029;-36
2023/12/16 08:14:40;;;;;;;3.53;2.65;;;5.40;99.90;;;4.62;100.00;99644.94;5002691;28;20022;-36
2023/12/16 08:17:06;;;;;;;3.78;2.65;;;5.40;99.90;;;4.66;100.00;99655.47;5004950;28;20053;-36
2023/12/16 08:19:32;;;;;;;4.95;2.38;;;5.40;99.90;;;4.70;100.00;99648.56;5001637;28;20033;-35
2023/12/16 08:22:00;;;;;;;5.75;2.47;;;5.40;99.90;;;4.71;100.00;99650.34;4994449;28;20413;-35
2023/12/16 08:24:25;;;;;;;4.75;3.10;;;5.40;99.90;;;4.69;100.00;99658.16;5002519;28;20021;-35
2023/12/16 08:26:51;;;;;;;6.03;3.30;;;5.50;99.90;;;4.67;100.00;99652.03;5005304;28;20040;-36
2023/12/16 08:29:18;;;;;;;3.45;2.40;;;5.50;99.90;;;4.66;100.00;99649.38;5004065;28;20038;-36
2023/12/16 08:31:45;;;;;;;3.88;2.42;;;5.50;99.90;;;4.68;100.00;99653.78;4997891;28;20034;-36
2023/12/16 08:34:11;;;;;;;4.75;2.88;;;5.50;99.90;;;4.82;100.00;99667.16;4999522;28;20049;-36
2023/12/16 08:36:37;;;;;;;3.72;2.60;;;5.60;99.90;;;4.87;100.00;99665.53;5006072;28;20141;-36
2023/12/16 08:39:02;;;;;;;4.78;2.70;;;5.60;99.90;;;4.77;100.00;99648.78;4998205;28;20533;-35
2023/12/16 08:41:29;;;;;;;4.32;2.80;;;5.60;99.90;;;4.98;100.00;99671.00;5000402;28;20983;-37
2023/12/16 08:43:55;;;;;;;5.00;2.60;;;5.70;99.90;;;5.01;100.00;99672.78;4999318;28;20042;-35
2023/12/16 08:46:23;;;;;;;3.42;2.35;;;5.70;99.90;;;5.08;100.00;99674.69;5001709;28;20029;-35
2023/12/16 08:48:49;;;;;;;4.22;2.72;;;5.80;99.90;;;5.14;100.00;99687.91;4997890;28;20042;-35
2023/12/16 08:51:25;;;;;;;4.18;2.63;;;5.80;99.90;;;5.18;100.00;99681.00;4995751;28;20033;-35
2023/12/16 08:53:51;;;;;;;4.22;2.58;;;5.90;99.90;;;5.25;100.00;99683.78;4996447;28;20421;-35
2023/12/16 08:56:18;;;;;;;4.53;2.78;;;6.00;99.90;;;5.23;100.00;99677.63;4994532;28;20033;-35
2023/12/16 08:58:46;;;;;;;4.82;2.70;;;6.00;99.90;;;5.31;100.00;99680.41;4997878;28;20028;-36
2023/12/16 09:01:11;;;;;;;4.28;2.72;;;6.00;99.90;;;5.23;100.00;99676.75;4999757;28;20518;-36
2023/12/16 09:03:41;;;;;;;4.50;2.70;;;6.10;99.90;;;5.38;100.00;99695.38;5000502;28;20037;-36
2023/12/16 09:06:06;;;;;;;4.32;2.80;;;6.10;99.90;;;5.43;100.00;99688.50;4999697;28;20042;-35
2023/12/16 09:08:32;;;;;;;4.50;2.92;;;6.10;99.90;;;5.47;100.00;99695.59;4996344;28;20041;-36
2023/12/16 09:10:58;;;;;;;4.30;3.22;;;6.20;99.90;;;5.51;100.00;99697.41;4999266;28;20042;-36
2023/12/16 09:13:23;;;;;;;4.90;3.15;;;6.20;99.90;;;5.55;100.00;99699.22;4995301;28;20029;-36
2023/12/16 09:15:49;;;;;;;6.15;3.38;;;6.20;99.90;;;5.62;100.00;99702.00;4992308;28;20039;-35
2023/12/16 09:18:15;;;;;;;2.78;2.15;;;6.30;99.90;;;5.60;100.00;99699.34;4994224;28;20038;-36
2023/12/16 09:20:40;;;;;;;3.88;2.38;;;6.40;99.90;;;5.73;100.00;99710.94;4988158;28;20060;-35
2023/12/16 09:23:06;;;;;;;2.92;2.05;;;6.40;99.90;;;5.68;100.00;99708.22;4993378;28;20145;-35
2023/12/16 09:25:32;;;;;;;3.70;2.30;;;6.40;99.90;;;5.59;100.00;99694.94;4996215;28;20519;-35
2023/12/16 09:27:57;;;;;;;2.80;1.92;;;6.40;99.90;;;5.77;100.00;99719.72;5001802;28;20037;-36
2023/12/16 09:30:23;;;;;;;4.60;1.75;;;6.40;99.90;;;5.81;100.00;99721.53;4995380;28;20045;-36
2023/12/16 09:32:49;;;;;;;3.92;2.25;;;6.50;99.90;;;5.82;100.00;99718.97;4997837;28;20490;-36
2023/12/16 09:35:15;;;;;;;3.10;2.05;;;6.50;99.90;;;5.85;100.00;99719.03;5000775;28;20056;-36
2023/12/16 09:37:41;;;;;;;3.85;2.38;;;6.60;99.90;;;5.91;100.00;99720.88;4996721;28;20040;-36
2023/12/16 09:40:07;;;;;;;5.13;2.42;;;6.60;99.90;;;5.92;100.00;99723.53;4998464;28;20180;-36
2023/12/16 09:42:38;;;;;;;3.97;2.58;;;6.60;99.90;;;6.00;100.00;99723.69;5013419;28;20366;-36
2023/12/16 09:45:04;;;;;;;4.78;2.35;;;6.70;99.90;;;6.05;100.00;99723.78;5002560;28;20034;-36
2023/12/16 09:47:31;;;;;;;3.10;2.40;;;6.70;99.90;;;5.98;100.00;99719.31;4991953;28;20041;-37
2023/12/16 09:50:00;;;;;;;3.63;2.55;;;6.80;99.90;;;6.07;100.00;99722.97;4995507;28;20037;-37
2023/12/16 09:52:29;;;;;;;4.28;3.08;;;6.80;99.90;;;6.08;100.00;99721.22;4998168;28;20034;-37
2023/12/16 09:54:55;;;;;;;3.92;2.60;;;6.80;99.90;;;6.12;100.00;99723.06;4998727;28;20061;-37
2023/12/16 09:57:23;;;;;;;5.20;2.88;;;6.80;99.90;;;6.13;100.00;99719.56;4992907;28;20122;-36
2023/12/16 09:59:51;;;;;;;4.28;2.90;;;6.90;99.90;;;6.18;100.00;99722.28;4997321;28;20461;-36
2023/12/16 10:02:27;;;;;;;4.63;3.10;;;6.90;99.90;;;6.27;100.00;99725.94;4999279;28;20525;-36
2023/12/16 10:04:58;;;;;;;5.40;3.13;;;7.00;99.90;;;6.33;100.00;99724.28;4993675;28;20337;-36
2023/12/16 10:07:24;;;;;;;5.97;2.80;;;7.00;99.90;;;6.39;100.00;99722.66;4997609;28;20033;-36
2023/12/16 10:09:50;;;;;;;4.55;2.67;;;7.10;99.90;;;6.44;100.00;99717.47;4991101;28;20034;-36
2023/12/16 10:12:16;;;;;;;4.40;2.90;;;7.10;99.90;;;6.50;100.00;99715.84;4985954;28;20364;-35
2023/12/16 10:14:50;;;;;;;5.63;2.97;;;7.20;99.90;;;6.52;100.00;99707.13;4995323;28;20033;-36
2023/12/16 10:17:17;;;;;;;4.22;2.53;;;7.30;99.90;;;6.62;100.00;99720.41;4983407;28;20558;-36
2023/12/16 10:19:44;;;;;;;6.15;2.47;;;7.30;99.90;;;6.67;100.00;99715.22;4981602;28;20624;-36
2023/12/16 10:22:20;;;;;;;4.78;2.78;;;7.40;99.90;;;6.72;100.00;99710.94;4982881;28;20033;-36